Destinations Lanzarote Airport

Lanzarote Airport (GCRR / ACE)

Flights to Lanzarote Airport

Flight number From ETE Dispatch
SPY-2206 EGFF Cardiff International Airport 03:50
SPY-2476 EGPH Edinburgh Airport 04:30

Flights from Lanzarote Airport

Flight number To ETE Dispatch
SPY-2207 EGFF Cardiff International Airport 03:50
SPY-2477 EGPH Edinburgh Airport 04:30
About

Lanzarote Airport facts

Lanzarote Airport is located in Arrecife at an elevation of 14.0 meters or 46 feet.

Currently, Speedy Airlines serves 4 flights to and from Lanzarote Airport.

Detailed airport info

Route map

Weather

Current weather

METAR

METAR

Metar data retrieved Sunday, 21 July 2024 at 19:25 UTC

GCRR 211900Z 36021KT 9999 FEW018 24/18 Q1013
Wind Temperature
21 kt 24c